sensor_id;sensor_type;location;lat;lon;timestamp;pressure;altitude;pressure_sealevel;temperature;humidity
29239;BME280;16267;48.194;11.546;2023-02-12T00:01:11;97808.84;;;4.91;66.82
29239;BME280;16267;48.194;11.546;2023-02-12T00:03:38;97810.41;;;4.92;66.67
29239;BME280;16267;48.194;11.546;2023-02-12T00:06:06;97819.94;;;4.93;67.01
29239;BME280;16267;48.194;11.546;2023-02-12T00:08:34;97805.88;;;4.92;66.92
29239;BME280;16267;48.194;11.546;2023-02-12T00:11:16;97808.53;;;4.92;66.63
29239;BME280;16267;48.194;11.546;2023-02-12T00:13:42;97804.94;;;4.88;66.74
29239;BME280;16267;48.194;11.546;2023-02-12T00:16:11;97801.22;;;4.81;68.21
29239;BME280;16267;48.194;11.546;2023-02-12T00:18:37;97799.03;;;4.83;68.23
29239;BME280;16267;48.194;11.546;2023-02-12T00:21:04;97812.75;;;4.85;68.24
29239;BME280;16267;48.194;11.546;2023-02-12T00:23:33;97810.91;;;4.85;67.42
29239;BME280;16267;48.194;11.546;2023-02-12T00:26:07;97811.69;;;4.86;67.76
29239;BME280;16267;48.194;11.546;2023-02-12T00:28:34;97811.69;;;4.86;67.86
29239;BME280;16267;48.194;11.546;2023-02-12T00:31:23;97811.84;;;4.81;68.36
29239;BME280;16267;48.194;11.546;2023-02-12T00:33:49;97808.88;;;4.82;68.46
29239;BME280;16267;48.194;11.546;2023-02-12T00:36:24;97820.31;;;4.83;67.95
29239;BME280;16267;48.194;11.546;2023-02-12T00:38:53;97818.41;;;4.83;67.73
29239;BME280;16267;48.194;11.546;2023-02-12T00:41:20;97813.25;;;4.78;68.28
29239;BME280;16267;48.194;11.546;2023-02-12T00:43:46;97820.94;;;4.80;68.06
29239;BME280;16267;48.194;11.546;2023-02-12T00:46:13;97808.41;;;4.80;68.16
29239;BME280;16267;48.194;11.546;2023-02-12T00:48:39;97813.75;;;4.80;68.47
29239;BME280;16267;48.194;11.546;2023-02-12T00:51:05;97811.84;;;4.81;68.03
29239;BME280;16267;48.194;11.546;2023-02-12T00:53:32;97812.16;;;4.79;68.35
29239;BME280;16267;48.194;11.546;2023-02-12T00:55:58;97815.63;;;4.80;68.30
29239;BME280;16267;48.194;11.546;2023-02-12T00:58:24;97820.13;;;4.79;67.82
29239;BME280;16267;48.194;11.546;2023-02-12T01:00:51;97816.41;;;4.80;67.72
29239;BME280;16267;48.194;11.546;2023-02-12T01:03:17;97811.88;;;4.72;67.70
29239;BME280;16267;48.194;11.546;2023-02-12T01:05:43;97804.38;;;4.65;68.91
29239;BME280;16267;48.194;11.546;2023-02-12T01:08:14;97816.25;;;4.68;68.71
29239;BME280;16267;48.194;11.546;2023-02-12T01:10:41;97815.63;;;4.71;68.05
29239;BME280;16267;48.194;11.546;2023-02-12T01:13:13;97811.53;;;4.74;67.96
29239;BME280;16267;48.194;11.546;2023-02-12T01:15:41;97817.66;;;4.74;68.10
29239;BME280;16267;48.194;11.546;2023-02-12T01:18:07;97820.31;;;4.74;67.79
29239;BME280;16267;48.194;11.546;2023-02-12T01:20:32;97823.44;;;4.76;67.81
29239;BME280;16267;48.194;11.546;2023-02-12T01:22:59;97813.91;;;4.75;68.10
29239;BME280;16267;48.194;11.546;2023-02-12T01:25:26;97821.09;;;4.75;68.10
29239;BME280;16267;48.194;11.546;2023-02-12T01:27:52;97815.78;;;4.75;68.00
29239;BME280;16267;48.194;11.546;2023-02-12T01:30:19;97815.44;;;4.76;67.59
29239;BME280;16267;48.194;11.546;2023-02-12T01:32:47;97833.28;;;4.76;67.34
29239;BME280;16267;48.194;11.546;2023-02-12T01:35:13;97825.31;;;4.76;67.47
29239;BME280;16267;48.194;11.546;2023-02-12T01:37:39;97819.22;;;4.75;67.76
29239;BME280;16267;48.194;11.546;2023-02-12T01:40:08;97819.22;;;4.75;67.97
29239;BME280;16267;48.194;11.546;2023-02-12T01:42:34;97826.44;;;4.75;67.76
29239;BME280;16267;48.194;11.546;2023-02-12T01:47:40;97819.53;;;4.74;67.58
29239;BME280;16267;48.194;11.546;2023-02-12T01:50:12;97821.09;;;4.75;67.25
29239;BME280;16267;48.194;11.546;2023-02-12T01:52:44;97825.66;;;4.74;67.76
29239;BME280;16267;48.194;11.546;2023-02-12T01:55:12;97821.41;;;4.73;67.58
29239;BME280;16267;48.194;11.546;2023-02-12T01:57:42;97818.75;;;4.73;67.43
29239;BME280;16267;48.194;11.546;2023-02-12T02:00:15;97821.75;;;4.72;67.22
29239;BME280;16267;48.194;11.546;2023-02-12T02:02:44;97811.09;;;4.72;66.95
29239;BME280;16267;48.194;11.546;2023-02-12T02:05:12;97812.66;;;4.73;67.35
29239;BME280;16267;48.194;11.546;2023-02-12T02:07:41;97814.84;;;4.70;67.55
29239;BME280;16267;48.194;11.546;2023-02-12T02:10:09;97811.75;;;4.68;67.65
29239;BME280;16267;48.194;11.546;2023-02-12T02:12:36;97817.34;;;4.67;67.88
29239;BME280;16267;48.194;11.546;2023-02-12T02:15:21;97822.69;;;4.67;68.14
29239;BME280;16267;48.194;11.546;2023-02-12T02:18:01;97807.34;;;4.64;68.00
29239;BME280;16267;48.194;11.546;2023-02-12T02:21:33;97804.22;;;4.62;68.22
29239;BME280;16267;48.194;11.546;2023-02-12T02:27:15;97806.88;;;4.62;68.26
29239;BME280;16267;48.194;11.546;2023-02-12T02:32:26;97794.38;;;4.54;68.66
29239;BME280;16267;48.194;11.546;2023-02-12T02:35:31;97800.47;;;4.54;69.01
29239;BME280;16267;48.194;11.546;2023-02-12T02:38:30;97789.53;;;4.56;68.92
29239;BME280;16267;48.194;11.546;2023-02-12T02:43:56;97793.13;;;4.51;69.94
29239;BME280;16267;48.194;11.546;2023-02-12T02:46:35;97794.72;;;4.52;69.80
29239;BME280;16267;48.194;11.546;2023-02-12T02:49:07;97789.56;;;4.47;70.27
29239;BME280;16267;48.194;11.546;2023-02-12T02:51:42;97786.91;;;4.47;70.50
29239;BME280;16267;48.194;11.546;2023-02-12T02:54:51;97787.81;;;4.51;69.69
29239;BME280;16267;48.194;11.546;2023-02-12T02:57:40;97790.16;;;4.53;69.05
29239;BME280;16267;48.194;11.546;2023-02-12T03:00:32;97797.38;;;4.52;69.05
29239;BME280;16267;48.194;11.546;2023-02-12T03:03:17;97803.13;;;4.54;68.50
29239;BME280;16267;48.194;11.546;2023-02-12T03:05:49;97808.44;;;4.54;68.67
29239;BME280;16267;48.194;11.546;2023-02-12T03:08:28;97811.59;;;4.56;68.63
29239;BME280;16267;48.194;11.546;2023-02-12T03:11:26;97801.72;;;4.57;68.33
29239;BME280;16267;48.194;11.546;2023-02-12T03:19:24;97807.84;;;4.57;69.27
29239;BME280;16267;48.194;11.546;2023-02-12T03:22:01;97811.28;;;4.58;68.79
29239;BME280;16267;48.194;11.546;2023-02-12T03:24:42;97812.06;;;4.58;68.82
29239;BME280;16267;48.194;11.546;2023-02-12T03:29:41;97813.94;;;4.58;69.47
29239;BME280;16267;48.194;11.546;2023-02-12T03:35:22;97816.91;;;4.56;69.47
29239;BME280;16267;48.194;11.546;2023-02-12T03:41:13;97812.38;;;4.57;69.30
29239;BME280;16267;48.194;11.546;2023-02-12T03:44:02;97820.66;;;4.55;69.64
29239;BME280;16267;48.194;11.546;2023-02-12T03:46:49;97819.91;;;4.55;69.45
29239;BME280;16267;48.194;11.546;2023-02-12T03:49:33;97813.78;;;4.54;68.77
29239;BME280;16267;48.194;11.546;2023-02-12T03:52:02;97814.56;;;4.55;68.89
29239;BME280;16267;48.194;11.546;2023-02-12T03:54:29;97808.44;;;4.54;68.83
29239;BME280;16267;48.194;11.546;2023-02-12T03:59:26;97818.78;;;4.56;68.42
29239;BME280;16267;48.194;11.546;2023-02-12T04:01:56;97816.44;;;4.54;68.65
29239;BME280;16267;48.194;11.546;2023-02-12T04:04:23;97819.91;;;4.55;69.00
29239;BME280;16267;48.194;11.546;2023-02-12T04:06:51;97822.56;;;4.55;69.24
29239;BME280;16267;48.194;11.546;2023-02-12T04:09:18;97833.19;;;4.55;69.59
29239;BME280;16267;48.194;11.546;2023-02-12T04:17:50;97837.41;;;4.56;68.87
29239;BME280;16267;48.194;11.546;2023-02-12T04:31:05;97850.56;;;4.52;69.74
29239;BME280;16267;48.194;11.546;2023-02-12T04:33:48;97842.09;;;4.50;70.36
29239;BME280;16267;48.194;11.546;2023-02-12T04:36:22;97846.66;;;4.50;71.06
29239;BME280;16267;48.194;11.546;2023-02-12T04:38:55;97848.81;;;4.47;70.89
29239;BME280;16267;48.194;11.546;2023-02-12T04:41:22;97854.16;;;4.47;70.85
29239;BME280;16267;48.194;11.546;2023-02-12T04:43:49;97851.50;;;4.47;70.38
29239;BME280;16267;48.194;11.546;2023-02-12T04:46:14;97850.38;;;4.48;70.05
29239;BME280;16267;48.194;11.546;2023-02-12T04:48:57;97860.72;;;4.50;69.73
29239;BME280;16267;48.194;11.546;2023-02-12T04:51:23;97863.38;;;4.50;69.52
29239;BME280;16267;48.194;11.546;2023-02-12T04:53:49;97861.81;;;4.49;69.50
29239;BME280;16267;48.194;11.546;2023-02-12T04:56:16;97864.16;;;4.51;69.52
29239;BME280;16267;48.194;11.546;2023-02-12T04:58:42;97862.59;;;4.50;69.62
29239;BME280;16267;48.194;11.546;2023-02-12T05:01:08;97859.59;;;4.51;69.46
29239;BME280;16267;48.194;11.546;2023-02-12T05:03:35;97856.94;;;4.51;69.57
29239;BME280;16267;48.194;11.546;2023-02-12T05:06:03;97856.94;;;4.51;69.23
29239;BME280;16267;48.194;11.546;2023-02-12T05:08:29;97856.94;;;4.51;70.67
29239;BME280;16267;48.194;11.546;2023-02-12T05:10:55;97859.16;;;4.49;72.61
29239;BME280;16267;48.194;11.546;2023-02-12T05:13:21;97865.25;;;4.50;72.59
29239;BME280;16267;48.194;11.546;2023-02-12T05:15:46;97863.69;;;4.48;73.12
29239;BME280;16267;48.194;11.546;2023-02-12T05:18:12;97873.53;;;4.48;73.11
29239;BME280;16267;48.194;11.546;2023-02-12T05:20:38;97866.34;;;4.48;72.08
29239;BME280;16267;48.194;11.546;2023-02-12T05:23:03;97869.00;;;4.48;71.49
29239;BME280;16267;48.194;11.546;2023-02-12T05:25:29;97869.00;;;4.48;71.16
29239;BME280;16267;48.194;11.546;2023-02-12T05:27:56;97871.34;;;4.50;71.45
29239;BME280;16267;48.194;11.546;2023-02-12T05:30:22;97877.44;;;4.51;70.92
29239;BME280;16267;48.194;11.546;2023-02-12T05:32:48;97890.75;;;4.51;70.80
29239;BME280;16267;48.194;11.546;2023-02-12T05:35:14;97888.09;;;4.51;70.95
29239;BME280;16267;48.194;11.546;2023-02-12T05:37:40;97896.84;;;4.51;70.78
29239;BME280;16267;48.194;11.546;2023-02-12T05:40:07;97897.63;;;4.52;70.87
29239;BME280;16267;48.194;11.546;2023-02-12T05:42:33;97893.09;;;4.52;70.89
29239;BME280;16267;48.194;11.546;2023-02-12T05:44:59;97890.44;;;4.52;70.86
29239;BME280;16267;48.194;11.546;2023-02-12T05:47:25;97890.44;;;4.52;73.16
29239;BME280;16267;48.194;11.546;2023-02-12T05:49:51;97883.25;;;4.53;74.78
29239;BME280;16267;48.194;11.546;2023-02-12T05:52:16;97892.00;;;4.53;75.53
29239;BME280;16267;48.194;11.546;2023-02-12T05:54:42;97888.56;;;4.53;74.11
29239;BME280;16267;48.194;11.546;2023-02-12T05:57:08;97892.78;;;4.54;75.12
29239;BME280;16267;48.194;11.546;2023-02-12T05:59:34;97882.47;;;4.52;74.84
29239;BME280;16267;48.194;11.546;2023-02-12T06:01:59;97892.00;;;4.53;74.21
29239;BME280;16267;48.194;11.546;2023-02-12T06:04:27;97887.78;;;4.52;76.79
29239;BME280;16267;48.194;11.546;2023-02-12T06:06:54;97887.78;;;4.52;77.64
29239;BME280;16267;48.194;11.546;2023-02-12T06:09:21;97891.53;;;4.51;79.15
29239;BME280;16267;48.194;11.546;2023-02-12T06:11:47;97896.84;;;4.51;80.13
29239;BME280;16267;48.194;11.546;2023-02-12T06:14:18;97900.28;;;4.52;80.48
29239;BME280;16267;48.194;11.546;2023-02-12T06:16:49;97894.97;;;4.52;80.10
29239;BME280;16267;48.194;11.546;2023-02-12T06:19:16;97890.75;;;4.51;80.67
29239;BME280;16267;48.194;11.546;2023-02-12T06:21:42;97892.63;;;4.50;80.77
29239;BME280;16267;48.194;11.546;2023-02-12T06:24:13;97897.94;;;4.50;81.04
29239;BME280;16267;48.194;11.546;2023-02-12T06:26:40;97905.16;;;4.50;81.46
29239;BME280;16267;48.194;11.546;2023-02-12T06:29:05;97906.22;;;4.48;81.96
29239;BME280;16267;48.194;11.546;2023-02-12T06:31:34;97902.78;;;4.48;82.87
29239;BME280;16267;48.194;11.546;2023-02-12T06:34:06;97903.91;;;4.47;83.00
29239;BME280;16267;48.194;11.546;2023-02-12T06:36:33;97907.63;;;4.46;83.38
29239;BME280;16267;48.194;11.546;2023-02-12T06:39:01;97907.81;;;4.41;83.58
29239;BME280;16267;48.194;11.546;2023-02-12T06:41:27;97912.03;;;4.42;83.61
29239;BME280;16267;48.194;11.546;2023-02-12T06:43:53;97916.56;;;4.41;84.82
29239;BME280;16267;48.194;11.546;2023-02-12T06:46:19;97918.44;;;4.41;85.13
29239;BME280;16267;48.194;11.546;2023-02-12T06:48:45;97914.97;;;4.40;85.44
29239;BME280;16267;48.194;11.546;2023-02-12T06:51:15;97914.97;;;4.32;86.26
29239;BME280;16267;48.194;11.546;2023-02-12T06:53:41;97927.50;;;4.31;87.33
29239;BME280;16267;48.194;11.546;2023-02-12T06:56:10;97921.88;;;4.33;87.40
29239;BME280;16267;48.194;11.546;2023-02-12T06:58:39;97914.34;;;4.35;87.33
29239;BME280;16267;48.194;11.546;2023-02-12T07:01:21;97915.75;;;4.32;87.14
29239;BME280;16267;48.194;11.546;2023-02-12T07:03:51;97909.22;;;4.30;88.25
29239;BME280;16267;48.194;11.546;2023-02-12T07:06:17;97909.50;;;4.28;89.17
29239;BME280;16267;48.194;11.546;2023-02-12T07:08:44;97913.41;;;4.31;89.71
29239;BME280;16267;48.194;11.546;2023-02-12T07:11:10;97914.97;;;4.32;89.21
29239;BME280;16267;48.194;11.546;2023-02-12T07:13:36;97915.75;;;4.32;89.18
29239;BME280;16267;48.194;11.546;2023-02-12T07:16:14;97911.69;;;4.35;89.22
29239;BME280;16267;48.194;11.546;2023-02-12T07:18:41;97917.97;;;4.39;87.96
29239;BME280;16267;48.194;11.546;2023-02-12T07:21:09;97924.22;;;4.43;87.86
29239;BME280;16267;48.194;11.546;2023-02-12T07:23:35;97914.53;;;4.38;90.08
29239;BME280;16267;48.194;11.546;2023-02-12T07:26:05;97916.56;;;4.33;91.43
29239;BME280;16267;48.194;11.546;2023-02-12T07:28:32;97910.13;;;4.34;92.67
29239;BME280;16267;48.194;11.546;2023-02-12T07:31:06;97911.38;;;4.36;92.95
29239;BME280;16267;48.194;11.546;2023-02-12T07:33:33;97913.13;;;4.41;92.70
29239;BME280;16267;48.194;11.546;2023-02-12T07:36:00;97907.97;;;4.44;91.74
29239;BME280;16267;48.194;11.546;2023-02-12T07:38:27;97913.13;;;4.50;89.90
29239;BME280;16267;48.194;11.546;2023-02-12T07:40:53;97911.72;;;4.52;90.02
29239;BME280;16267;48.194;11.546;2023-02-12T07:43:21;97908.25;;;4.52;91.42
29239;BME280;16267;48.194;11.546;2023-02-12T07:45:47;97907.94;;;4.53;92.12
29239;BME280;16267;48.194;11.546;2023-02-12T07:48:13;97903.41;;;4.45;92.75
29239;BME280;16267;48.194;11.546;2023-02-12T07:50:38;97907.19;;;4.35;93.88
29239;BME280;16267;48.194;11.546;2023-02-12T07:53:04;97913.41;;;4.39;94.79
29239;BME280;16267;48.194;11.546;2023-02-12T07:55:30;97913.41;;;4.48;95.55
29239;BME280;16267;48.194;11.546;2023-02-12T07:57:55;97912.16;;;4.54;95.31
29239;BME280;16267;48.194;11.546;2023-02-12T08:00:21;97915.44;;;4.60;94.08
29239;BME280;16267;48.194;11.546;2023-02-12T08:02:52;97915.28;;;4.65;93.72
29239;BME280;16267;48.194;11.546;2023-02-12T08:05:18;97911.72;;;4.69;93.75
29239;BME280;16267;48.194;11.546;2023-02-12T08:07:44;97912.03;;;4.77;93.41
29239;BME280;16267;48.194;11.546;2023-02-12T08:10:10;97907.16;;;4.79;92.77
29239;BME280;16267;48.194;11.546;2023-02-12T08:12:36;97916.84;;;4.83;93.17
29239;BME280;16267;48.194;11.546;2023-02-12T08:15:02;97918.13;;;4.86;92.77
29239;BME280;16267;48.194;11.546;2023-02-12T08:17:28;97912.47;;;4.79;92.84
29239;BME280;16267;48.194;11.546;2023-02-12T08:19:53;97910.91;;;4.78;94.03
29239;BME280;16267;48.194;11.546;2023-02-12T08:22:19;97911.06;;;4.81;95.34
29239;BME280;16267;48.194;11.546;2023-02-12T08:24:46;97911.38;;;4.88;96.11
29239;BME280;16267;48.194;11.546;2023-02-12T08:27:13;97905.09;;;4.93;95.30
29239;BME280;16267;48.194;11.546;2023-02-12T08:29:38;97911.84;;;4.90;95.02
29239;BME280;16267;48.194;11.546;2023-02-12T08:32:04;97901.97;;;5.00;97.33
29239;BME280;16267;48.194;11.546;2023-02-12T08:34:35;97900.84;;;5.09;97.20
29239;BME280;16267;48.194;11.546;2023-02-12T08:37:01;97903.81;;;5.17;96.27
29239;BME280;16267;48.194;11.546;2023-02-12T08:39:29;97907.06;;;5.22;95.07
29239;BME280;16267;48.194;11.546;2023-02-12T08:41:56;97908.47;;;5.28;94.48
29239;BME280;16267;48.194;11.546;2023-02-12T08:44:23;97914.41;;;5.34;93.64
29239;BME280;16267;48.194;11.546;2023-02-12T08:46:51;97909.69;;;5.40;93.31
29239;BME280;16267;48.194;11.546;2023-02-12T08:49:21;97906.06;;;5.44;92.93
29239;BME280;16267;48.194;11.546;2023-02-12T08:51:50;97905.91;;;5.49;92.30
29239;BME280;16267;48.194;11.546;2023-02-12T08:54:24;97903.06;;;5.54;92.10
29239;BME280;16267;48.194;11.546;2023-02-12T08:56:57;97909.00;;;5.60;92.03
29239;BME280;16267;48.194;11.546;2023-02-12T08:59:23;97905.34;;;5.65;91.62
29239;BME280;16267;48.194;11.546;2023-02-12T09:01:51;97900.97;;;5.69;91.24
29239;BME280;16267;48.194;11.546;2023-02-12T09:04:21;97910.63;;;5.73;90.88
29239;BME280;16267;48.194;11.546;2023-02-12T09:06:47;97908.56;;;5.79;91.12
29239;BME280;16267;48.194;11.546;2023-02-12T09:09:14;97907.78;;;5.78;89.69
29239;BME280;16267;48.194;11.546;2023-02-12T09:11:40;97909.16;;;5.85;91.23
29239;BME280;16267;48.194;11.546;2023-02-12T09:14:10;97911.66;;;5.90;90.46
29239;BME280;16267;48.194;11.546;2023-02-12T09:16:37;97907.28;;;5.94;89.85
29239;BME280;16267;48.194;11.546;2023-02-12T09:19:05;97914.28;;;5.98;90.02
29239;BME280;16267;48.194;11.546;2023-02-12T09:21:31;97914.88;;;6.04;89.92
29239;BME280;16267;48.194;11.546;2023-02-12T09:23:57;97908.28;;;6.10;90.17
29239;BME280;16267;48.194;11.546;2023-02-12T09:26:24;97915.63;;;6.13;89.61
29239;BME280;16267;48.194;11.546;2023-02-12T09:28:51;97909.00;;;6.19;89.97
29239;BME280;16267;48.194;11.546;2023-02-12T09:31:22;97906.94;;;6.25;90.06
29239;BME280;16267;48.194;11.546;2023-02-12T09:33:56;97916.75;;;6.33;89.45
29239;BME280;16267;48.194;11.546;2023-02-12T09:36:22;97912.00;;;6.39;88.89
29239;BME280;16267;48.194;11.546;2023-02-12T09:38:48;97913.72;;;6.43;88.57
29239;BME280;16267;48.194;11.546;2023-02-12T09:41:40;97911.63;;;6.49;87.93
29239;BME280;16267;48.194;11.546;2023-02-12T09:44:48;97914.09;;;6.54;86.47
29239;BME280;16267;48.194;11.546;2023-02-12T09:52:59;97909.84;;;6.74;86.68
29239;BME280;16267;48.194;11.546;2023-02-12T09:55:30;97913.88;;;6.80;86.12
29239;BME280;16267;48.194;11.546;2023-02-12T09:57:56;97906.00;;;6.84;85.68
29239;BME280;16267;48.194;11.546;2023-02-12T10:00:30;97901.56;;;6.88;84.57
29239;BME280;16267;48.194;11.546;2023-02-12T10:03:02;97907.13;;;6.95;84.77
29239;BME280;16267;48.194;11.546;2023-02-12T10:05:36;97912.63;;;6.99;83.48
29239;BME280;16267;48.194;11.546;2023-02-12T10:25:32;97914.47;;;7.31;79.83
29239;BME280;16267;48.194;11.546;2023-02-12T10:28:10;97917.59;;;7.33;79.45
29239;BME280;16267;48.194;11.546;2023-02-12T10:30:51;97917.94;;;7.32;77.74
29239;BME280;16267;48.194;11.546;2023-02-12T10:33:26;97917.13;;;7.31;78.88
29239;BME280;16267;48.194;11.546;2023-02-12T10:39:11;97915.38;;;7.35;78.82
29239;BME280;16267;48.194;11.546;2023-02-12T10:42:02;97910.34;;;7.34;78.75
29239;BME280;16267;48.194;11.546;2023-02-12T10:44:32;97909.69;;;7.37;78.72
29239;BME280;16267;48.194;11.546;2023-02-12T10:46:58;97912.03;;;7.38;78.69
29239;BME280;16267;48.194;11.546;2023-02-12T10:49:24;97909.81;;;7.41;78.60
29239;BME280;16267;48.194;11.546;2023-02-12T10:54:48;97916.50;;;7.47;78.14
29239;BME280;16267;48.194;11.546;2023-02-12T10:59:46;97913.72;;;7.55;77.61
29239;BME280;16267;48.194;11.546;2023-02-12T11:02:26;97915.41;;;7.60;77.64
29239;BME280;16267;48.194;11.546;2023-02-12T11:04:54;97906.06;;;7.66;76.84
29239;BME280;16267;48.194;11.546;2023-02-12T11:07:21;97906.16;;;7.70;75.43
29239;BME280;16267;48.194;11.546;2023-02-12T11:09:49;97909.75;;;7.74;76.32
29239;BME280;16267;48.194;11.546;2023-02-12T11:12:23;97903.28;;;7.75;75.67
29239;BME280;16267;48.194;11.546;2023-02-12T11:14:57;97902.28;;;7.79;75.93
29239;BME280;16267;48.194;11.546;2023-02-12T11:17:40;97899.59;;;7.79;74.65
29239;BME280;16267;48.194;11.546;2023-02-12T11:23:03;97892.47;;;7.83;75.02
29239;BME280;16267;48.194;11.546;2023-02-12T11:25:34;97886.13;;;7.88;75.31
29239;BME280;16267;48.194;11.546;2023-02-12T11:28:17;97889.03;;;7.95;73.12
29239;BME280;16267;48.194;11.546;2023-02-12T11:33:37;97880.19;;;8.07;74.34
29239;BME280;16267;48.194;11.546;2023-02-12T11:36:22;97877.16;;;8.21;75.49
29239;BME280;16267;48.194;11.546;2023-02-12T11:38:55;97887.81;;;8.33;73.60
29239;BME280;16267;48.194;11.546;2023-02-12T11:41:38;97880.47;;;8.42;73.25
29239;BME280;16267;48.194;11.546;2023-02-12T11:44:25;97881.56;;;8.54;71.46
29239;BME280;16267;48.194;11.546;2023-02-12T11:47:23;97877.53;;;8.60;71.18
29239;BME280;16267;48.194;11.546;2023-02-12T11:50:23;97881.81;;;8.77;70.35
29239;BME280;16267;48.194;11.546;2023-02-12T11:52:52;97880.88;;;8.85;70.62
29239;BME280;16267;48.194;11.546;2023-02-12T11:55:31;97872.84;;;8.85;69.14
29239;BME280;16267;48.194;11.546;2023-02-12T11:58:03;97872.50;;;8.86;68.95
29239;BME280;16267;48.194;11.546;2023-02-12T12:00:38;97867.25;;;8.90;69.34
29239;BME280;16267;48.194;11.546;2023-02-12T12:03:21;97870.09;;;8.97;69.87
29239;BME280;16267;48.194;11.546;2023-02-12T12:06:04;97869.31;;;8.97;68.20
29239;BME280;16267;48.194;11.546;2023-02-12T12:08:50;97861.38;;;9.00;68.62
29239;BME280;16267;48.194;11.546;2023-02-12T12:19:58;97852.16;;;9.29;68.62
29239;BME280;16267;48.194;11.546;2023-02-12T12:22:49;97853.44;;;9.35;67.25
29239;BME280;16267;48.194;11.546;2023-02-12T12:25:47;97848.69;;;9.45;68.60
29239;BME280;16267;48.194;11.546;2023-02-12T12:28:34;97851.38;;;9.45;67.65
29239;BME280;16267;48.194;11.546;2023-02-12T12:31:11;97850.06;;;9.38;66.79
29239;BME280;16267;48.194;11.546;2023-02-12T12:45:08;97843.06;;;9.50;67.16
29239;BME280;16267;48.194;11.546;2023-02-12T12:50:39;97849.50;;;9.45;67.04
29239;BME280;16267;48.194;11.546;2023-02-12T12:54:01;97853.63;;;9.43;66.81
29239;BME280;16267;48.194;11.546;2023-02-12T13:10:54;97837.81;;;9.22;66.64
29239;BME280;16267;48.194;11.546;2023-02-12T13:13:43;97842.03;;;9.23;66.91
29239;BME280;16267;48.194;11.546;2023-02-12T13:16:29;97837.72;;;9.18;66.15
29239;BME280;16267;48.194;11.546;2023-02-12T13:19:31;97840.56;;;9.25;66.90
29239;BME280;16267;48.194;11.546;2023-02-12T13:25:18;97835.50;;;9.20;66.01
29239;BME280;16267;48.194;11.546;2023-02-12T13:27:48;97838.94;;;9.21;66.38
29239;BME280;16267;48.194;11.546;2023-02-12T13:33:23;97835.38;;;9.16;65.60
29239;BME280;16267;48.194;11.546;2023-02-12T13:35:54;97845.69;;;9.14;65.42
29239;BME280;16267;48.194;11.546;2023-02-12T13:38:55;97840.13;;;9.07;65.26
29239;BME280;16267;48.194;11.546;2023-02-12T13:41:23;97836.75;;;9.10;65.50
29239;BME280;16267;48.194;11.546;2023-02-12T13:44:57;97838.59;;;9.06;65.89
29239;BME280;16267;48.194;11.546;2023-02-12T13:47:36;97837.28;;;9.16;66.43
29239;BME280;16267;48.194;11.546;2023-02-12T13:50:41;97832.28;;;9.14;64.79
29239;BME280;16267;48.194;11.546;2023-02-12T13:53:28;97834.84;;;9.11;64.64
29239;BME280;16267;48.194;11.546;2023-02-12T14:01:12;97823.13;;;9.15;66.39
29239;BME280;16267;48.194;11.546;2023-02-12T14:03:39;97826.25;;;9.18;66.85
29239;BME280;16267;48.194;11.546;2023-02-12T14:08:46;97820.38;;;9.12;67.68
29239;BME280;16267;48.194;11.546;2023-02-12T14:11:19;97829.66;;;9.02;68.31
29239;BME280;16267;48.194;11.546;2023-02-12T14:13:54;97831.56;;;9.02;68.04
29239;BME280;16267;48.194;11.546;2023-02-12T14:16:40;97833.66;;;8.92;67.83
29239;BME280;16267;48.194;11.546;2023-02-12T14:19:38;97834.66;;;8.88;67.44
29239;BME280;16267;48.194;11.546;2023-02-12T14:24:54;97823.50;;;8.86;67.01
29239;BME280;16267;48.194;11.546;2023-02-12T14:27:25;97827.13;;;8.78;66.96
29239;BME280;16267;48.194;11.546;2023-02-12T14:35:42;97831.78;;;8.81;65.49
29239;BME280;16267;48.194;11.546;2023-02-12T14:40:43;97831.94;;;8.72;65.62
29239;BME280;16267;48.194;11.546;2023-02-12T14:43:36;97819.25;;;8.69;65.69
29239;BME280;16267;48.194;11.546;2023-02-12T14:48:56;97827.28;;;8.69;65.63
29239;BME280;16267;48.194;11.546;2023-02-12T14:56:53;97829.78;;;8.62;65.99
29239;BME280;16267;48.194;11.546;2023-02-12T14:59:24;97825.53;;;8.61;65.89
29239;BME280;16267;48.194;11.546;2023-02-12T15:01:51;97825.53;;;8.61;65.98
29239;BME280;16267;48.194;11.546;2023-02-12T15:04:30;97824.31;;;8.58;66.26
29239;BME280;16267;48.194;11.546;2023-02-12T15:07:11;97829.59;;;8.55;65.88
29239;BME280;16267;48.194;11.546;2023-02-12T15:10:10;97821.56;;;8.55;65.60
29239;BME280;16267;48.194;11.546;2023-02-12T15:12:51;97811.97;;;8.54;65.90
29239;BME280;16267;48.194;11.546;2023-02-12T15:15:30;97816.13;;;8.51;65.77
29239;BME280;16267;48.194;11.546;2023-02-12T15:18:28;97813.25;;;8.44;65.96
29239;BME280;16267;48.194;11.546;2023-02-12T15:21:30;97808.56;;;8.41;66.93
29239;BME280;16267;48.194;11.546;2023-02-12T15:24:10;97810.81;;;8.39;66.54
29239;BME280;16267;48.194;11.546;2023-02-12T15:26:48;97806.56;;;8.25;66.90
29239;BME280;16267;48.194;11.546;2023-02-12T15:29:33;97807.94;;;8.19;67.33
29239;BME280;16267;48.194;11.546;2023-02-12T15:32:05;97797.06;;;8.12;68.14
29239;BME280;16267;48.194;11.546;2023-02-12T15:34:35;97802.50;;;8.16;68.33
29239;BME280;16267;48.194;11.546;2023-02-12T15:37:04;97804.41;;;8.15;68.14
29239;BME280;16267;48.194;11.546;2023-02-12T15:39:42;97805.19;;;8.16;68.59
29239;BME280;16267;48.194;11.546;2023-02-12T15:42:34;97800.06;;;8.11;68.87
29239;BME280;16267;48.194;11.546;2023-02-12T15:47:42;97807.22;;;7.94;69.93
29239;BME280;16267;48.194;11.546;2023-02-12T15:50:14;97812.81;;;7.89;70.05
29239;BME280;16267;48.194;11.546;2023-02-12T15:52:43;97806.00;;;7.92;70.08
29239;BME280;16267;48.194;11.546;2023-02-12T15:55:19;97801.09;;;7.94;70.14
29239;BME280;16267;48.194;11.546;2023-02-12T15:58:04;97804.47;;;7.91;70.13
29239;BME280;16267;48.194;11.546;2023-02-12T16:00:42;97809.34;;;7.89;69.98
29239;BME280;16267;48.194;11.546;2023-02-12T16:03:20;97802.88;;;7.90;70.49
29239;BME280;16267;48.194;11.546;2023-02-12T16:05:48;97799.44;;;7.89;70.69